Terminal Aerodrome Forecast
Issued by NWS

Home | Current Version | Previous Version | Text Only | Print | Product List | Glossary On
Versions: 1 2 3 4 5 6 7 8 9 10 11 12 13 14 15 16 17 18 19 20
000
FTUS41 KBTV 020530
TAFSLK
TAF
KSLK 020530Z 0206/0306 00000KT 1/4SM FG VV003
     FM021300 VRB03KT 1SM BR OVC003
     FM021400 24004KT P6SM FEW250
     FM030300 00000KT 2SM BR SCT003=

USA.gov is the U.S. government's official web portal to all federal, state and local government web resources and services.